createdAt,value
2023-04-27T00:00:40.222Z,102167.75
2023-04-27T00:03:07.510Z,102169.44
2023-04-27T00:05:39.516Z,102172.03
2023-04-27T00:08:07.088Z,102175.44
2023-04-27T00:10:33.591Z,102173.69
2023-04-27T00:13:00.516Z,102172.78
2023-04-27T00:15:27.573Z,102182.25
2023-04-27T00:17:55.416Z,102177.06
2023-04-27T00:20:21.851Z,102175.31
2023-04-27T00:22:48.278Z,102175.28
2023-04-27T00:25:14.728Z,102175.28
2023-04-27T00:27:41.203Z,102180.38
2023-04-27T00:30:08.200Z,102178.63
2023-04-27T00:32:34.749Z,102176.03
2023-04-27T00:35:01.153Z,102173.41
2023-04-27T00:37:27.506Z,102166.53
2023-04-27T00:39:53.857Z,102169.09
2023-04-27T00:42:20.566Z,102168.25
2023-04-27T00:44:47.356Z,102166.53
2023-04-27T00:47:14.640Z,102173.38
2023-04-27T00:49:41.206Z,102171.66
2023-04-27T00:52:07.830Z,102174.22
2023-04-27T00:54:34.478Z,102173.34
2023-04-27T00:57:00.929Z,102172.50
2023-04-27T00:59:27.320Z,102178.50
2023-04-27T01:01:55.062Z,102177.63
2023-04-27T01:04:22.252Z,102177.59
2023-04-27T01:06:48.785Z,102162.16
2023-04-27T01:09:16.526Z,102167.25
2023-04-27T01:11:42.908Z,102164.66
2023-04-27T01:14:09.818Z,102160.38
2023-04-27T01:16:37.265Z,102155.25
2023-04-27T01:19:04.517Z,102160.38
2023-04-27T01:21:31.214Z,102158.69
2023-04-27T01:23:57.596Z,102165.56
2023-04-27T01:26:24.094Z,102157.84
2023-04-27T01:28:50.516Z,102167.28
2023-04-27T01:31:17.235Z,102175.78
2023-04-27T01:33:43.678Z,102179.25
2023-04-27T01:36:10.415Z,102171.59
2023-04-27T01:38:37.174Z,102169.84
2023-04-27T01:41:09.064Z,102160.41
2023-04-27T01:43:39.443Z,102158.63
2023-04-27T01:46:11.359Z,102162.91
2023-04-27T01:48:39.052Z,102156.84
2023-04-27T01:51:05.537Z,102150.81
2023-04-27T01:53:32.026Z,102148.22
2023-04-27T01:55:59.671Z,102148.25
2023-04-27T01:58:26.897Z,102146.53
2023-04-27T02:00:53.855Z,102141.38
2023-04-27T02:03:20.478Z,102144.00
2023-04-27T02:05:47.913Z,102152.50
2023-04-27T02:08:14.742Z,102152.56
2023-04-27T02:10:41.302Z,102147.44
2023-04-27T02:13:07.754Z,102155.06
2023-04-27T02:15:35.345Z,102148.19
2023-04-27T02:18:03.494Z,102159.31
2023-04-27T02:20:31.374Z,102157.56
2023-04-27T02:22:57.845Z,102151.53
2023-04-27T02:25:24.672Z,102154.09
2023-04-27T02:27:51.180Z,102151.47
2023-04-27T02:30:18.186Z,102154.03
2023-04-27T02:32:45.860Z,102154.03
2023-04-27T02:35:13.406Z,102144.56
2023-04-27T02:37:39.929Z,102140.28
2023-04-27T02:40:08.027Z,102151.38
2023-04-27T02:42:34.500Z,102142.81
2023-04-27T02:45:00.925Z,102145.34
2023-04-27T02:47:27.424Z,102142.72
2023-04-27T02:49:53.944Z,102144.44
2023-04-27T02:52:20.611Z,102141.88
2023-04-27T02:54:47.111Z,102138.41
2023-04-27T02:57:13.652Z,102135.78
2023-04-27T02:59:40.097Z,102136.63
2023-04-27T03:02:06.545Z,102129.75
2023-04-27T03:04:33.042Z,102130.56
2023-04-27T03:06:59.452Z,102137.41
2023-04-27T03:09:25.853Z,102136.53
2023-04-27T03:11:52.768Z,102141.66
2023-04-27T03:14:19.228Z,102137.38
2023-04-27T03:16:45.676Z,102144.19
2023-04-27T03:19:12.489Z,102142.50
2023-04-27T03:21:39.362Z,102146.75
2023-04-27T03:24:05.909Z,102143.31
2023-04-27T03:26:32.422Z,102151.00
2023-04-27T03:28:58.900Z,102150.16
2023-04-27T03:31:25.410Z,102149.31
2023-04-27T03:33:51.818Z,102150.19
2023-04-27T03:36:18.243Z,102146.78
2023-04-27T03:38:44.671Z,102151.03
2023-04-27T03:41:11.571Z,102145.84
2023-04-27T03:43:37.993Z,102144.13
2023-04-27T03:46:04.570Z,102148.34
2023-04-27T03:48:31.104Z,102140.66
2023-04-27T03:50:57.523Z,102149.19
2023-04-27T03:53:23.998Z,102147.44
2023-04-27T03:55:50.588Z,102150.00
2023-04-27T03:58:17.884Z,102153.41
2023-04-27T04:00:44.567Z,102146.53
2023-04-27T04:03:11.118Z,102149.97
2023-04-27T04:05:37.651Z,102146.53
2023-04-27T04:08:04.301Z,102149.97
2023-04-27T04:10:30.661Z,102150.00
2023-04-27T04:12:57.129Z,102152.59
2023-04-27T04:15:23.660Z,102150.94
2023-04-27T04:17:50.143Z,102152.69
2023-04-27T04:20:17.733Z,102154.41
2023-04-27T04:22:44.312Z,102156.19
2023-04-27T04:25:10.692Z,102156.19
2023-04-27T04:27:37.597Z,102162.22
2023-04-27T04:30:06.137Z,102164.72
2023-04-27T04:32:33.654Z,102170.69
2023-04-27T04:35:01.495Z,102168.13
2023-04-27T04:37:28.200Z,102171.56
2023-04-27T04:39:54.645Z,102170.69
2023-04-27T04:42:21.354Z,102174.06
2023-04-27T04:44:47.826Z,102175.75
2023-04-27T04:47:14.269Z,102179.97
2023-04-27T04:49:40.647Z,102185.97
2023-04-27T04:52:07.024Z,102180.09
2023-04-27T04:54:33.420Z,102185.28
2023-04-27T04:57:00.859Z,102181.91
2023-04-27T04:59:27.263Z,102186.16
2023-04-27T05:01:56.534Z,102181.94
2023-04-27T05:04:23.277Z,102185.34
2023-04-27T05:06:49.723Z,102185.41
2023-04-27T05:09:16.093Z,102178.56
2023-04-27T05:11:42.454Z,102179.44
2023-04-27T05:14:09.101Z,102183.69
2023-04-27T05:16:35.694Z,102185.44
2023-04-27T05:19:02.270Z,102181.25
2023-04-27T05:21:28.637Z,102182.22
2023-04-27T05:23:55.037Z,102176.31
2023-04-27T05:26:21.635Z,102186.69
2023-04-27T05:28:49.292Z,102179.06
2023-04-27T05:31:15.942Z,102180.88
2023-04-27T05:33:42.474Z,102185.19
2023-04-27T05:36:09.400Z,102185.25
2023-04-27T05:38:39.949Z,102192.16
2023-04-27T05:41:06.442Z,102194.00
2023-04-27T05:43:34.900Z,102194.97
2023-04-27T05:46:01.407Z,102194.16
2023-04-27T05:48:27.853Z,102194.25
2023-04-27T05:51:04.159Z,102190.88
2023-04-27T05:53:32.328Z,102188.34
2023-04-27T05:55:59.366Z,102190.13
2023-04-27T05:58:25.845Z,102189.28
2023-04-27T06:00:52.797Z,102197.03
2023-04-27T06:03:19.527Z,102195.34
2023-04-27T06:05:46.163Z,102196.19
2023-04-27T06:08:12.982Z,102190.25
2023-04-27T06:10:39.590Z,102189.38
2023-04-27T06:13:06.156Z,102191.94
2023-04-27T06:15:32.673Z,102185.06
2023-04-27T06:17:59.213Z,102188.47
2023-04-27T06:20:25.812Z,102191.06
2023-04-27T06:22:52.199Z,102185.00
2023-04-27T06:25:18.590Z,102186.69
2023-04-27T06:27:45.030Z,102182.34
2023-04-27T06:30:12.063Z,102190.91
2023-04-27T06:32:38.520Z,102193.41
2023-04-27T06:35:05.343Z,102186.50
2023-04-27T06:37:32.727Z,102184.72
2023-04-27T06:39:59.215Z,102193.22
2023-04-27T06:42:25.678Z,102195.72
2023-04-27T06:44:55.120Z,102188.72
2023-04-27T06:47:22.292Z,102191.19
2023-04-27T06:49:49.823Z,102194.50
2023-04-27T06:52:16.697Z,102190.91
2023-04-27T06:54:43.273Z,102188.16
2023-04-27T06:57:09.751Z,102188.75
2023-04-27T06:59:36.200Z,102183.50
2023-04-27T07:02:03.259Z,102187.72
2023-04-27T07:04:30.229Z,102186.75
2023-04-27T07:06:56.772Z,102190.16
2023-04-27T07:09:27.641Z,102196.06
2023-04-27T07:11:54.851Z,102195.91
2023-04-27T07:14:21.427Z,102187.22
2023-04-27T07:16:47.873Z,102192.25
2023-04-27T07:19:14.585Z,102202.50
2023-04-27T07:21:41.142Z,102195.41
2023-04-27T07:24:07.891Z,102205.56
2023-04-27T07:26:34.312Z,102198.47
2023-04-27T07:29:02.790Z,102199.28
2023-04-27T07:31:33.282Z,102192.25
2023-04-27T07:34:00.552Z,102199.84
2023-04-27T07:36:27.618Z,102185.78
2023-04-27T07:38:54.122Z,102184.84
2023-04-27T07:41:21.110Z,102182.06
2023-04-27T07:43:48.630Z,102176.75
2023-04-27T07:46:15.091Z,102178.38
2023-04-27T07:48:42.182Z,102178.09
2023-04-27T07:51:08.603Z,102173.56
2023-04-27T07:53:35.608Z,102175.97
2023-04-27T07:56:02.898Z,102191.06
2023-04-27T07:58:29.389Z,102195.13
2023-04-27T08:00:56.018Z,102182.09
2023-04-27T08:03:23.996Z,102183.03
2023-04-27T08:05:50.736Z,102180.19
2023-04-27T08:08:18.052Z,102186.09
2023-04-27T08:10:44.534Z,102186.81
2023-04-27T08:13:11.123Z,102190.22
2023-04-27T08:15:37.506Z,102184.41
2023-04-27T08:18:04.043Z,102191.16
2023-04-27T08:20:30.507Z,102194.34
2023-04-27T08:22:57.236Z,102191.69
2023-04-27T08:25:23.640Z,102185.34
2023-04-27T08:27:50.029Z,102185.34
2023-04-27T08:30:17.240Z,102185.06
2023-04-27T08:32:43.667Z,102188.72
2023-04-27T08:35:10.303Z,102184.88
2023-04-27T08:37:36.892Z,102177.13
2023-04-27T08:40:06.095Z,102178.75
2023-04-27T08:42:32.797Z,102164.88
2023-04-27T08:44:59.580Z,102174.41
2023-04-27T08:47:35.067Z,102175.13
2023-04-27T08:50:08.361Z,102176.75
2023-04-27T08:52:34.776Z,102177.81
2023-04-27T08:55:01.204Z,102171.94
2023-04-27T08:57:27.631Z,102172.69
2023-04-27T09:00:01.180Z,102177.59
2023-04-27T09:02:29.617Z,102179.25
2023-04-27T09:04:56.953Z,102175.72
2023-04-27T09:07:23.565Z,102175.34
2023-04-27T09:09:50.214Z,102176.00
2023-04-27T09:12:21.864Z,102176.78
2023-04-27T09:15:03.755Z,102170.06
2023-04-27T09:17:30.957Z,102173.81
2023-04-27T09:20:10.695Z,102159.06
2023-04-27T09:22:45.528Z,102168.50
2023-04-27T09:25:29.465Z,102163.38
2023-04-27T09:27:57.941Z,102167.66
2023-04-27T09:30:25.477Z,102156.53
2023-04-27T09:33:02.014Z,102154.63
2023-04-27T09:35:32.489Z,102151.66
2023-04-27T09:37:59.928Z,102147.19
2023-04-27T09:40:28.020Z,102154.00
2023-04-27T09:42:56.943Z,102146.97
2023-04-27T09:45:25.196Z,102146.22
2023-04-27T09:47:52.491Z,102144.34
2023-04-27T09:50:19.409Z,102151.19
2023-04-27T09:52:47.048Z,102161.78
2023-04-27T09:55:38.280Z,102148.16
2023-04-27T09:58:54.075Z,102151.41
2023-04-27T10:01:47.946Z,102137.31
2023-04-27T10:04:39.458Z,102147.25
2023-04-27T10:07:12.924Z,102140.09
2023-04-27T10:09:47.485Z,102137.41
2023-04-27T10:12:16.428Z,102141.63
2023-04-27T10:14:53.908Z,102147.91
2023-04-27T10:17:32.156Z,102141.19
2023-04-27T10:20:07.385Z,102138.34
2023-04-27T10:22:42.264Z,102144.28
2023-04-27T10:25:24.068Z,102148.44
2023-04-27T10:28:01.488Z,102142.31
2023-04-27T10:30:37.049Z,102145.38
2023-04-27T10:33:09.281Z,102139.53
2023-04-27T10:35:44.455Z,102138.41
2023-04-27T10:38:16.660Z,102134.47
2023-04-27T10:40:57.584Z,102134.72
2023-04-27T10:43:27.124Z,102134.34
2023-04-27T10:45:54.036Z,102140.84
2023-04-27T10:48:20.817Z,102138.75
2023-04-27T10:50:47.565Z,102138.69
2023-04-27T10:53:15.438Z,102127.19
2023-04-27T10:55:42.083Z,102128.00
2023-04-27T10:58:08.577Z,102124.69
2023-04-27T11:00:44.017Z,102126.72
2023-04-27T11:03:23.187Z,102127.22
2023-04-27T11:06:00.248Z,102132.69
2023-04-27T11:08:26.778Z,102123.91
2023-04-27T11:10:53.248Z,102109.88
2023-04-27T11:13:24.600Z,102112.91
2023-04-27T11:15:56.446Z,102100.66
2023-04-27T11:18:26.302Z,102097.22
2023-04-27T11:20:54.818Z,102095.34
2023-04-27T11:23:25.564Z,102084.66
2023-04-27T11:25:52.611Z,102091.09
2023-04-27T11:28:27.959Z,102089.88
2023-04-27T11:31:00.702Z,102095.88
2023-04-27T11:33:28.066Z,102091.63
2023-04-27T11:35:55.082Z,102086.78
2023-04-27T11:38:22.150Z,102086.22
2023-04-27T11:41:04.270Z,102084.22
2023-04-27T11:43:30.948Z,102080.81
2023-04-27T11:45:58.763Z,102075.50
2023-04-27T11:48:27.065Z,102079.22
2023-04-27T11:50:53.595Z,102072.84
2023-04-27T11:53:36.517Z,102079.78
2023-04-27T11:56:05.681Z,102075.03
2023-04-27T11:58:36.657Z,102073.81
2023-04-27T12:01:07.171Z,102072.09
2023-04-27T12:03:33.957Z,102064.50
2023-04-27T12:06:16.098Z,102069.44
2023-04-27T12:08:47.281Z,102063.75
2023-04-27T12:11:13.741Z,102059.53
2023-04-27T12:13:40.764Z,102059.41
2023-04-27T12:16:07.520Z,102058.88
2023-04-27T12:18:34.044Z,102060.78
2023-04-27T12:21:02.994Z,102057.63
2023-04-27T12:23:29.957Z,102063.56
2023-04-27T12:25:56.545Z,102065.84
2023-04-27T12:28:23.395Z,102055.41
2023-04-27T12:30:49.933Z,102048.47
2023-04-27T12:33:16.735Z,102043.00
2023-04-27T12:35:43.280Z,102051.13
2023-04-27T12:38:09.972Z,102041.94
2023-04-27T12:40:36.580Z,102047.97
2023-04-27T12:43:02.953Z,102040.03
2023-04-27T12:45:29.458Z,102035.97
2023-04-27T12:48:03.312Z,102030.63
2023-04-27T12:50:31.961Z,102029.13
2023-04-27T12:52:58.471Z,102030.75
2023-04-27T12:55:33.147Z,102026.50
2023-04-27T12:58:00.490Z,102027.50
2023-04-27T13:00:27.567Z,102025.50
2023-04-27T13:02:54.198Z,102031.31
2023-04-27T13:05:22.106Z,102022.09
2023-04-27T13:07:48.777Z,102029.41
2023-04-27T13:10:15.359Z,102017.31
2023-04-27T13:12:41.748Z,102018.69
2023-04-27T13:15:09.149Z,102023.34
2023-04-27T13:17:35.533Z,102024.19
2023-04-27T13:20:02.047Z,102020.84
2023-04-27T13:22:28.591Z,102011.94
2023-04-27T13:24:55.157Z,102010.31
2023-04-27T13:27:22.386Z,102009.00
2023-04-27T13:29:51.039Z,102000.00
2023-04-27T13:32:17.696Z,101996.81
2023-04-27T13:34:44.405Z,101994.81
2023-04-27T13:37:10.852Z,101992.03
2023-04-27T13:39:37.716Z,101985.47
2023-04-27T13:42:04.396Z,101987.91
2023-04-27T13:44:31.847Z,101988.25
2023-04-27T13:46:58.452Z,101979.91
2023-04-27T13:49:25.924Z,101974.66
2023-04-27T13:51:52.735Z,101974.16
2023-04-27T13:54:20.565Z,101974.09
2023-04-27T13:56:47.038Z,101974.00
2023-04-27T13:59:13.781Z,101972.09
2023-04-27T14:01:40.516Z,101970.41
2023-04-27T14:04:07.557Z,101971.16
2023-04-27T14:06:34.134Z,101972.72
2023-04-27T14:09:00.504Z,101960.91
2023-04-27T14:11:27.007Z,101948.38
2023-04-27T14:13:53.461Z,101951.44
2023-04-27T14:16:20.747Z,101944.34
2023-04-27T14:18:47.213Z,101938.91
2023-04-27T14:21:13.666Z,101947.53
2023-04-27T14:23:40.060Z,101941.13
2023-04-27T14:26:06.410Z,101943.09
2023-04-27T14:28:32.802Z,101936.59
2023-04-27T14:30:59.174Z,101936.59
2023-04-27T14:33:25.564Z,101934.03
2023-04-27T14:35:51.981Z,101923.44
2023-04-27T14:38:18.372Z,101927.28
2023-04-27T14:40:44.766Z,101927.78
2023-04-27T14:43:11.291Z,101928.25
2023-04-27T14:45:50.275Z,101926.50
2023-04-27T14:48:19.286Z,101929.69
2023-04-27T14:50:45.872Z,101923.41
2023-04-27T14:53:12.256Z,101915.31
2023-04-27T14:55:38.759Z,101910.59
2023-04-27T14:58:05.524Z,101911.19
2023-04-27T15:00:32.059Z,101899.72
2023-04-27T15:02:58.506Z,101896.41
2023-04-27T15:05:25.317Z,101895.13
2023-04-27T15:07:51.756Z,101895.81
2023-04-27T15:10:18.590Z,101893.94
2023-04-27T15:12:45.789Z,101896.06
2023-04-27T15:15:15.093Z,101899.00
2023-04-27T15:17:41.712Z,101896.19
2023-04-27T15:20:08.667Z,101898.81
2023-04-27T15:22:35.059Z,101895.69
2023-04-27T15:25:01.434Z,101892.91
2023-04-27T15:27:27.850Z,101887.59
2023-04-27T15:29:54.853Z,101888.06
2023-04-27T15:32:23.235Z,101875.66
2023-04-27T15:34:49.917Z,101876.75
2023-04-27T15:37:16.465Z,101876.72
2023-04-27T15:39:42.937Z,101868.00
2023-04-27T15:42:09.369Z,101875.13
2023-04-27T15:44:36.289Z,101878.59
2023-04-27T15:47:03.219Z,101868.88
2023-04-27T15:49:30.403Z,101862.50
2023-04-27T15:51:56.781Z,101863.66
2023-04-27T15:54:23.238Z,101853.59
2023-04-27T15:56:49.664Z,101854.47
2023-04-27T15:59:16.392Z,101854.00
2023-04-27T16:01:43.031Z,101854.53
2023-04-27T16:04:09.917Z,101851.31
2023-04-27T16:06:36.828Z,101853.16
2023-04-27T16:09:04.334Z,101845.44
2023-04-27T16:11:31.477Z,101845.38
2023-04-27T16:13:58.529Z,101840.44
2023-04-27T16:16:25.058Z,101836.19
2023-04-27T16:18:51.550Z,101833.41
2023-04-27T16:21:18.197Z,101840.50
2023-04-27T16:23:44.751Z,101830.84
2023-04-27T16:26:11.650Z,101830.34
2023-04-27T16:28:38.197Z,101816.44
2023-04-27T16:31:04.701Z,101821.84
2023-04-27T16:33:31.264Z,101821.06
2023-04-27T16:35:57.762Z,101816.72
2023-04-27T16:38:24.309Z,101822.25
2023-04-27T16:40:51.912Z,101821.63
2023-04-27T16:43:18.471Z,101813.34
2023-04-27T16:45:44.886Z,101807.28
2023-04-27T16:48:11.953Z,101802.22
2023-04-27T16:50:38.650Z,101787.72
2023-04-27T16:53:06.932Z,101780.28
2023-04-27T16:55:34.125Z,101772.56
2023-04-27T16:58:00.773Z,101770.03
2023-04-27T17:00:28.062Z,101777.00
2023-04-27T17:02:55.277Z,101783.78
2023-04-27T17:05:21.826Z,101774.84
2023-04-27T17:07:48.242Z,101774.22
2023-04-27T17:10:15.574Z,101779.06
2023-04-27T17:12:42.048Z,101779.50
2023-04-27T17:15:10.511Z,101779.66
2023-04-27T17:17:36.961Z,101785.72
2023-04-27T17:20:04.248Z,101786.75
2023-04-27T17:22:31.050Z,101794.88
2023-04-27T17:24:57.628Z,101792.22
2023-04-27T17:27:24.048Z,101791.53
2023-04-27T17:29:51.750Z,101793.53
2023-04-27T17:32:18.285Z,101786.81
2023-04-27T17:34:45.205Z,101784.44
2023-04-27T17:37:11.699Z,101787.28
2023-04-27T17:39:38.180Z,101788.19
2023-04-27T17:42:06.746Z,101785.91
2023-04-27T17:44:34.125Z,101774.91
2023-04-27T17:47:00.631Z,101779.28
2023-04-27T17:49:27.127Z,101787.38
2023-04-27T17:51:53.475Z,101782.53
2023-04-27T17:54:19.880Z,101783.50
2023-04-27T17:56:46.558Z,101775.03
2023-04-27T17:59:13.208Z,101782.97
2023-04-27T18:01:39.851Z,101787.50
2023-04-27T18:04:07.103Z,101782.28
2023-04-27T18:06:34.070Z,101782.19
2023-04-27T18:09:00.616Z,101771.94
2023-04-27T18:11:27.056Z,101770.53
2023-04-27T18:13:57.907Z,101767.97
2023-04-27T18:16:24.826Z,101766.53
2023-04-27T18:18:51.254Z,101767.56
2023-04-27T18:21:17.619Z,101764.25
2023-04-27T18:23:44.631Z,101767.97
2023-04-27T18:26:11.712Z,101763.84
2023-04-27T18:28:40.107Z,101763.91
2023-04-27T18:31:16.909Z,101774.28
2023-04-27T18:33:47.105Z,101769.25
2023-04-27T18:36:13.703Z,101771.38
2023-04-27T18:38:40.539Z,101772.34
2023-04-27T18:41:07.647Z,101774.31
2023-04-27T18:43:36.506Z,101773.63
2023-04-27T18:46:04.211Z,101778.97
2023-04-27T18:48:30.927Z,101773.94
2023-04-27T18:50:57.284Z,101765.38
2023-04-27T18:53:23.956Z,101775.84
2023-04-27T18:55:50.511Z,101778.59
2023-04-27T18:58:16.962Z,101771.78
2023-04-27T19:00:43.421Z,101766.69
2023-04-27T19:03:10.005Z,101764.25
2023-04-27T19:05:38.963Z,101769.59
2023-04-27T19:08:05.407Z,101762.03
2023-04-27T19:10:31.783Z,101768.19
2023-04-27T19:12:58.338Z,101766.66
2023-04-27T19:15:24.892Z,101760.78
2023-04-27T19:18:02.140Z,101765.22
2023-04-27T19:20:36.283Z,101770.28
2023-04-27T19:23:02.886Z,101766.88
2023-04-27T19:25:29.301Z,101762.69
2023-04-27T19:27:55.712Z,101754.09
2023-04-27T19:30:22.094Z,101756.81
2023-04-27T19:32:48.731Z,101751.66
2023-04-27T19:35:15.961Z,101745.66
2023-04-27T19:37:42.368Z,101746.50
2023-04-27T19:40:09.400Z,101745.78
2023-04-27T19:42:35.985Z,101753.66
2023-04-27T19:45:03.844Z,101757.09
2023-04-27T19:47:30.817Z,101761.41
2023-04-27T19:49:58.942Z,101757.09
2023-04-27T19:52:25.914Z,101754.63
2023-04-27T19:54:55.719Z,101745.97
2023-04-27T19:57:22.162Z,101751.41
2023-04-27T19:59:48.709Z,101745.50
2023-04-27T20:02:15.687Z,101740.28
2023-04-27T20:04:43.000Z,101748.25
2023-04-27T20:07:09.682Z,101744.91
2023-04-27T20:09:36.115Z,101744.13
2023-04-27T20:12:04.052Z,101746.84
2023-04-27T20:14:33.625Z,101740.88
2023-04-27T20:17:00.443Z,101734.84
2023-04-27T20:19:26.972Z,101740.97
2023-04-27T20:21:53.446Z,101727.94
2023-04-27T20:24:19.890Z,101721.16
2023-04-27T20:26:46.583Z,101728.97
2023-04-27T20:29:13.085Z,101722.97
2023-04-27T20:31:39.597Z,101717.06
2023-04-27T20:34:06.195Z,101715.41
2023-04-27T20:36:33.201Z,101716.38
2023-04-27T20:39:04.944Z,101708.56
2023-04-27T20:41:33.603Z,101710.25
2023-04-27T20:44:00.409Z,101706.91
2023-04-27T20:46:27.320Z,101704.31
2023-04-27T20:48:53.975Z,101697.44
2023-04-27T20:51:20.367Z,101693.16
2023-04-27T20:53:46.762Z,101688.78
2023-04-27T20:56:13.170Z,101689.75
2023-04-27T20:58:39.605Z,101682.84
2023-04-27T21:01:06.110Z,101687.19
2023-04-27T21:03:32.647Z,101672.59
2023-04-27T21:05:59.173Z,101675.31
2023-04-27T21:08:25.922Z,101670.28
2023-04-27T21:10:52.410Z,101675.53
2023-04-27T21:13:19.598Z,101667.84
2023-04-27T21:15:46.042Z,101670.44
2023-04-27T21:18:22.515Z,101662.75
2023-04-27T21:20:56.018Z,101657.66
2023-04-27T21:23:22.500Z,101649.19
2023-04-27T21:25:48.900Z,101642.38
2023-04-27T21:28:15.497Z,101635.53
2023-04-27T21:30:41.968Z,101638.94
2023-04-27T21:33:08.676Z,101641.47
2023-04-27T21:35:35.174Z,101638.03
2023-04-27T21:38:01.805Z,101638.94
2023-04-27T21:40:28.206Z,101639.72
2023-04-27T21:42:54.978Z,101629.28
2023-04-27T21:45:21.510Z,101625.72
2023-04-27T21:47:48.010Z,101611.78
2023-04-27T21:50:14.566Z,101607.59
2023-04-27T21:52:41.000Z,101605.13
2023-04-27T21:55:07.998Z,101603.50
2023-04-27T21:57:34.472Z,101593.13
2023-04-27T22:00:01.604Z,101583.50
2023-04-27T22:02:29.461Z,101573.13
2023-04-27T22:04:56.505Z,101583.56
2023-04-27T22:07:24.579Z,101578.53
2023-04-27T22:09:50.963Z,101574.97
2023-04-27T22:12:17.471Z,101582.00
2023-04-27T22:14:43.895Z,101574.16
2023-04-27T22:17:12.428Z,101566.25
2023-04-27T22:19:38.864Z,101570.53
2023-04-27T22:22:05.486Z,101569.69
2023-04-27T22:24:31.849Z,101568.84
2023-04-27T22:26:58.226Z,101563.78
2023-04-27T22:29:24.820Z,101562.88
2023-04-27T22:31:52.049Z,101551.72
2023-04-27T22:34:18.752Z,101552.56
2023-04-27T22:36:45.377Z,101558.59
2023-04-27T22:39:11.838Z,101549.16
2023-04-27T22:41:38.337Z,101550.91
2023-04-27T22:44:04.919Z,101543.16
2023-04-27T22:46:31.346Z,101531.88
2023-04-27T22:48:58.605Z,101532.78
2023-04-27T22:51:27.225Z,101528.50
2023-04-27T22:53:54.249Z,101532.78
2023-04-27T22:56:20.940Z,101524.09
2023-04-27T22:58:47.352Z,101518.28
2023-04-27T23:01:13.858Z,101526.91
2023-04-27T23:03:40.496Z,101521.72
2023-04-27T23:06:12.182Z,101520.88
2023-04-27T23:08:42.009Z,101522.66
2023-04-27T23:11:09.547Z,101528.75
2023-04-27T23:13:37.910Z,101536.50
2023-04-27T23:16:05.128Z,101526.91
2023-04-27T23:18:31.569Z,101526.16
2023-04-27T23:20:57.976Z,101518.41
2023-04-27T23:23:24.391Z,101514.97
2023-04-27T23:25:50.776Z,101513.28
2023-04-27T23:28:17.191Z,101515.88
2023-04-27T23:30:43.638Z,101512.53
2023-04-27T23:33:10.041Z,101500.50
2023-04-27T23:35:36.579Z,101501.34
2023-04-27T23:38:03.126Z,101489.38
2023-04-27T23:40:29.512Z,101483.38
2023-04-27T23:42:56.142Z,101477.38
2023-04-27T23:45:22.485Z,101462.59
2023-04-27T23:47:48.879Z,101448.81
2023-04-27T23:50:15.780Z,101448.94
2023-04-27T23:52:42.615Z,101444.69
2023-04-27T23:55:09.312Z,101443.00
2023-04-27T23:57:35.720Z,101443.13
